createdAt,value
2023-01-04T00:04:48.613Z,7.25
2023-01-04T00:09:52.448Z,7.23
2023-01-04T00:14:54.010Z,7.19
2023-01-04T00:19:55.681Z,7.18
2023-01-04T00:24:57.821Z,7.19
2023-01-04T00:30:01.431Z,7.19
2023-01-04T00:35:05.140Z,7.22
2023-01-04T00:40:09.530Z,7.23
2023-01-04T00:45:11.115Z,7.22
2023-01-04T00:50:16.532Z,7.23
2023-01-04T00:55:18.085Z,7.23
2023-01-04T01:00:23.642Z,7.23
2023-01-04T01:05:28.747Z,7.20
2023-01-04T01:10:30.352Z,7.21
2023-01-04T01:15:34.492Z,7.22
2023-01-04T01:20:41.386Z,7.22
2023-01-04T01:25:47.535Z,7.22
2023-01-04T01:30:56.647Z,7.23
2023-01-04T01:36:05.617Z,7.27
2023-01-04T01:41:10.421Z,7.26
2023-01-04T01:46:17.206Z,7.24
2023-01-04T01:51:19.542Z,7.21
2023-01-04T01:56:23.642Z,7.19
2023-01-04T02:01:26.145Z,7.16
2023-01-04T02:06:35.881Z,7.13
2023-01-04T02:11:37.391Z,7.10
2023-01-04T02:17:01.782Z,7.09
2023-01-04T02:22:42.913Z,7.09
2023-01-04T02:27:55.516Z,7.08
2023-01-04T02:33:10.729Z,7.08
2023-01-04T02:38:22.305Z,7.07
2023-01-04T02:43:54.177Z,6.98
2023-01-04T02:49:23.086Z,6.91
2023-01-04T02:54:30.810Z,6.89
2023-01-04T02:59:44.632Z,6.90
2023-01-04T03:05:13.236Z,6.91
2023-01-04T03:10:21.269Z,6.92
2023-01-04T03:15:28.139Z,6.94
2023-01-04T03:20:33.103Z,6.92
2023-01-04T03:26:03.804Z,6.85
2023-01-04T03:31:50.444Z,6.82
2023-01-04T03:37:07.586Z,6.75
2023-01-04T03:42:39.416Z,6.71
2023-01-04T03:48:02.080Z,6.64
2023-01-04T03:53:07.478Z,6.61
2023-01-04T03:58:09.286Z,6.66
2023-01-04T04:03:10.848Z,6.66
2023-01-04T04:08:30.616Z,6.66
2023-01-04T04:13:34.845Z,6.63
2023-01-04T04:18:36.430Z,6.62
2023-01-04T04:23:37.959Z,6.58
2023-01-04T04:28:42.560Z,6.51
2023-01-04T04:33:46.175Z,6.53
2023-01-04T04:38:47.732Z,6.46
2023-01-04T04:43:54.080Z,6.50
2023-01-04T04:48:56.226Z,6.48
2023-01-04T04:53:57.780Z,6.51
2023-01-04T04:59:01.601Z,6.54
2023-01-04T05:04:09.805Z,6.50
2023-01-04T05:09:14.766Z,6.54
2023-01-04T05:14:16.331Z,6.61
2023-01-04T05:19:22.424Z,6.62
2023-01-04T05:24:26.246Z,6.64
2023-01-04T05:29:50.865Z,6.68
2023-01-04T05:34:52.357Z,6.64
2023-01-04T05:39:56.231Z,6.61
2023-01-04T05:44:59.502Z,6.62
2023-01-04T05:50:01.062Z,6.61
2023-01-04T05:55:03.400Z,6.65
2023-01-04T06:00:07.093Z,6.66
2023-01-04T06:05:16.430Z,6.68
2023-01-04T06:10:23.016Z,6.61
2023-01-04T06:15:24.573Z,6.59
2023-01-04T06:20:35.993Z,6.63
2023-01-04T06:25:38.612Z,6.63
2023-01-04T06:30:45.696Z,6.70
2023-01-04T06:35:57.536Z,6.78
2023-01-04T06:40:59.518Z,6.84
2023-01-04T06:46:01.522Z,6.89
2023-01-04T06:51:04.397Z,6.94
2023-01-04T06:56:08.060Z,6.99
2023-01-04T07:01:09.835Z,7.03
2023-01-04T07:06:13.964Z,7.01
2023-01-04T07:11:19.013Z,7.03
2023-01-04T07:16:24.515Z,7.05
2023-01-04T07:21:30.917Z,7.06
2023-01-04T07:26:35.460Z,7.02
2023-01-04T07:31:37.015Z,6.99
2023-01-04T07:36:46.345Z,7.03
2023-01-04T07:41:49.001Z,7.05
2023-01-04T07:46:56.749Z,6.99
2023-01-04T07:52:01.250Z,6.90
2023-01-04T07:57:02.760Z,6.94
2023-01-04T08:02:10.272Z,6.96
2023-01-04T08:07:14.322Z,7.02
2023-01-04T08:12:19.462Z,7.04
2023-01-04T08:17:20.974Z,7.09
2023-01-04T08:22:24.563Z,7.13
2023-01-04T08:27:26.204Z,7.21
2023-01-04T08:32:29.860Z,7.28
2023-01-04T08:37:31.986Z,7.35
2023-01-04T08:42:33.502Z,7.41
2023-01-04T08:47:34.981Z,7.43
2023-01-04T08:52:36.452Z,7.51
2023-01-04T08:57:38.158Z,7.60
2023-01-04T09:02:39.841Z,7.64
2023-01-04T09:07:43.938Z,7.72
2023-01-04T09:12:47.829Z,7.74
2023-01-04T09:18:29.572Z,7.77
2023-01-04T09:23:16.313Z,7.78
2023-01-04T09:28:18.485Z,7.78
2023-01-04T09:33:35.836Z,7.82
2023-01-04T09:38:48.981Z,7.88
2023-01-04T09:43:52.589Z,7.89
2023-01-04T09:49:15.210Z,7.89
2023-01-04T09:54:23.182Z,7.92
2023-01-04T09:59:34.661Z,7.97
2023-01-04T10:04:51.506Z,8.06
2023-01-04T10:10:00.533Z,8.09
2023-01-04T10:15:26.836Z,8.08
2023-01-04T10:21:21.764Z,8.08
2023-01-04T10:26:17.836Z,8.10
2023-01-04T10:31:40.191Z,8.16
2023-01-04T10:36:47.463Z,8.13
2023-01-04T10:42:16.056Z,8.19
2023-01-04T10:47:29.747Z,8.24
2023-01-04T10:52:50.766Z,8.26
2023-01-04T10:58:04.853Z,8.29
2023-01-04T11:03:18.865Z,8.36
2023-01-04T11:08:28.639Z,8.39
2023-01-04T11:13:31.183Z,8.40
2023-01-04T11:18:40.141Z,8.34
2023-01-04T11:23:41.639Z,8.39
2023-01-04T11:29:03.040Z,8.42
2023-01-04T11:34:04.646Z,8.46
2023-01-04T11:39:23.309Z,8.48
2023-01-04T11:44:27.471Z,8.56
2023-01-04T11:49:35.495Z,8.59
2023-01-04T11:54:38.825Z,8.55
2023-01-04T11:59:43.137Z,8.57
2023-01-04T12:04:44.669Z,8.63
2023-01-04T12:09:50.392Z,8.59
2023-01-04T12:14:52.277Z,8.64
2023-01-04T12:19:59.158Z,8.73
2023-01-04T12:25:06.172Z,8.81
2023-01-04T12:30:08.681Z,8.84
2023-01-04T12:36:07.510Z,8.74
2023-01-04T12:41:09.056Z,8.89
2023-01-04T12:46:59.108Z,8.97
2023-01-04T12:52:30.629Z,9.08
2023-01-04T12:57:37.880Z,9.20
2023-01-04T13:02:53.283Z,9.28
2023-01-04T13:07:59.911Z,9.38
2023-01-04T13:13:35.770Z,9.46
2023-01-04T13:18:43.304Z,9.48
2023-01-04T13:24:03.355Z,9.58
2023-01-04T13:29:13.164Z,9.61
2023-01-04T13:34:59.973Z,9.67
2023-01-04T13:40:26.714Z,9.69
2023-01-04T13:45:43.076Z,9.67
2023-01-04T13:51:06.806Z,9.74
2023-01-04T13:56:20.699Z,9.77
2023-01-04T14:01:34.277Z,9.79
2023-01-04T14:06:45.458Z,9.77
2023-01-04T14:12:07.374Z,9.80
2023-01-04T14:17:12.694Z,9.80
2023-01-04T14:22:23.506Z,9.73
2023-01-04T14:27:40.343Z,9.79
2023-01-04T14:32:53.684Z,9.80
2023-01-04T14:38:02.195Z,9.86
2023-01-04T14:43:35.195Z,9.90
2023-01-04T14:48:36.897Z,9.87
2023-01-04T14:53:38.757Z,9.86
2023-01-04T14:58:40.737Z,9.87
2023-01-04T15:03:42.528Z,9.93
2023-01-04T15:08:44.332Z,9.95
2023-01-04T15:13:46.034Z,9.97
2023-01-04T15:18:49.416Z,9.96
2023-01-04T15:23:51.144Z,9.97
2023-01-04T15:28:53.235Z,9.82
2023-01-04T15:33:55.251Z,9.95
2023-01-04T15:38:57.192Z,9.90
2023-01-04T15:43:59.733Z,9.93
2023-01-04T15:49:02.586Z,9.91
2023-01-04T15:54:04.692Z,9.91
2023-01-04T15:59:06.693Z,9.94
2023-01-04T16:04:09.370Z,9.88
2023-01-04T16:09:11.487Z,9.84
2023-01-04T16:14:13.261Z,9.87
2023-01-04T16:19:15.268Z,9.86
2023-01-04T16:24:44.779Z,9.83
2023-01-04T16:29:38.554Z,9.86
2023-01-04T16:34:40.241Z,9.87
2023-01-04T16:40:06.318Z,9.91
2023-01-04T16:45:04.156Z,9.95
2023-01-04T16:50:07.266Z,9.95
2023-01-04T16:55:09.442Z,9.96
2023-01-04T17:00:12.034Z,9.93
2023-01-04T17:05:13.986Z,9.95
2023-01-04T17:10:15.786Z,9.96
2023-01-04T17:20:42.204Z,9.97
2023-01-04T17:25:43.873Z,9.97
2023-01-04T17:30:45.639Z,9.98
2023-01-04T17:35:47.386Z,9.97
2023-01-04T17:40:49.135Z,9.92
2023-01-04T17:45:50.979Z,9.90
2023-01-04T17:50:52.802Z,9.90
2023-01-04T18:00:56.596Z,9.93
2023-01-04T18:06:24.397Z,9.94
2023-01-04T18:11:20.775Z,9.97
2023-01-04T18:16:28.289Z,9.94
2023-01-04T18:21:31.508Z,9.98
2023-01-04T18:26:53.435Z,9.97
2023-01-04T18:31:55.889Z,9.99
2023-01-04T18:37:04.812Z,10.03
2023-01-04T18:42:14.103Z,10.06
2023-01-04T18:47:21.750Z,10.03
2023-01-04T18:52:23.513Z,10.07
2023-01-04T18:57:26.551Z,9.98
2023-01-04T19:02:28.669Z,10.04
2023-01-04T19:07:30.877Z,10.03
2023-01-04T19:12:32.800Z,10.13
2023-01-04T19:17:35.753Z,10.13
2023-01-04T19:22:37.933Z,10.14
2023-01-04T19:27:39.840Z,10.12
2023-01-04T19:32:42.824Z,10.16
2023-01-04T19:37:44.938Z,10.21
2023-01-04T19:42:47.325Z,10.25
2023-01-04T19:47:51.247Z,10.27
2023-01-04T19:52:53.129Z,10.24
2023-01-04T19:57:55.229Z,10.29
2023-01-04T20:02:57.443Z,10.34
2023-01-04T20:07:59.492Z,10.35
2023-01-04T20:13:01.444Z,10.29
2023-01-04T20:18:05.987Z,10.29
2023-01-04T20:23:13.660Z,10.35
2023-01-04T20:28:17.203Z,10.36
2023-01-04T20:33:18.965Z,10.45
2023-01-04T20:38:20.901Z,10.48
2023-01-04T20:43:36.418Z,10.52
2023-01-04T20:48:39.865Z,10.58
2023-01-04T20:53:43.637Z,10.58
2023-01-04T20:58:47.552Z,10.60
2023-01-04T21:03:49.739Z,10.63
2023-01-04T21:08:55.260Z,10.63
2023-01-04T21:13:59.507Z,10.56
2023-01-04T21:19:01.340Z,10.66
2023-01-04T21:24:03.355Z,10.70
2023-01-04T21:29:05.224Z,10.68
2023-01-04T21:34:13.033Z,10.76
2023-01-04T21:39:16.992Z,10.72
2023-01-04T21:44:19.170Z,10.70
2023-01-04T21:49:22.981Z,10.75
2023-01-04T21:54:24.999Z,10.82
2023-01-04T21:59:26.947Z,10.77
2023-01-04T22:04:29.458Z,10.80
2023-01-04T22:09:31.280Z,10.83
2023-01-04T22:14:34.029Z,10.89
2023-01-04T22:19:35.927Z,10.86
2023-01-04T22:24:38.458Z,10.89
2023-01-04T22:29:40.758Z,10.89
2023-01-04T22:34:42.944Z,10.90
2023-01-04T22:39:44.742Z,10.94
2023-01-04T22:44:46.749Z,10.91
2023-01-04T22:49:49.609Z,10.93
2023-01-04T22:54:51.554Z,10.97
2023-01-04T22:59:54.603Z,10.91
2023-01-04T23:04:58.809Z,10.97
2023-01-04T23:10:00.798Z,10.96
2023-01-04T23:15:04.384Z,11.07
2023-01-04T23:20:10.398Z,11.01
2023-01-04T23:25:12.636Z,11.06
2023-01-04T23:30:16.254Z,11.09
2023-01-04T23:35:18.606Z,11.14
2023-01-04T23:40:21.358Z,11.14
2023-01-04T23:45:24.072Z,11.23
2023-01-04T23:50:26.146Z,11.29
2023-01-04T23:55:29.263Z,11.24
